Time;durP1;ratioP1;P1;durP2;ratioP2;P2;SDS_P1;SDS_P2;PMS_P1;PMS_P2;Temp;Humidity;BMP_temperature;BMP_pressure;BME280_temperature;BME280_humidity;BME280_pressure;Samples;Min_cycle;Max_cycle;Signal;HPM_P1;HPM_P2
2023/03/04 00:02:22;;;;;;;8.20;5.03;;;5.60;99.90;;;;;;5047515;28;20503;-81
2023/03/04 00:04:47;;;;;;;5.77;4.43;;;5.60;99.90;;;;;;5048785;28;20486;-82
2023/03/04 00:07:15;;;;;;;12.87;5.70;;;5.50;99.90;;;;;;5045047;28;20772;-79
2023/03/04 00:09:45;;;;;;;10.00;4.37;;;5.60;99.90;;;;;;5053995;28;20718;-81
2023/03/04 00:12:11;;;;;;;8.93;4.80;;;5.70;99.90;;;;;;5045567;28;20416;-79
2023/03/04 00:14:37;;;;;;;13.53;8.23;;;5.60;99.90;;;;;;5046031;28;20417;-79
2023/03/04 00:17:03;;;;;;;8.70;4.93;;;5.70;99.90;;;;;;5043129;28;20445;-78
2023/03/04 00:19:30;;;;;;;7.80;4.37;;;5.60;99.90;;;;;;5051755;28;20582;-78
2023/03/04 00:21:56;;;;;;;6.87;3.60;;;5.40;99.90;;;;;;5047585;28;20416;-81
2023/03/04 00:24:21;;;;;;;7.70;4.33;;;5.60;99.90;;;;;;5045346;28;20482;-79
2023/03/04 00:26:47;;;;;;;13.10;5.73;;;5.50;99.90;;;;;;5046288;28;20694;-80
2023/03/04 00:29:13;;;;;;;8.37;4.10;;;5.60;99.90;;;;;;5042961;28;20174;-80
2023/03/04 00:31:38;;;;;;;9.00;4.73;;;5.90;99.90;;;;;;5043917;28;20194;-81
2023/03/04 00:34:04;;;;;;;12.17;4.40;;;5.50;99.90;;;;;;5051799;28;20170;-79
2023/03/04 00:36:29;;;;;;;6.40;3.73;;;5.40;99.90;;;;;;5053805;28;20209;-80
2023/03/04 00:38:55;;;;;;;19.97;5.50;;;5.70;99.90;;;;;;5052501;28;20205;-79
2023/03/04 00:41:21;;;;;;;13.63;5.10;;;5.50;99.90;;;;;;5054220;28;20297;-79
2023/03/04 00:43:46;;;;;;;6.27;3.97;;;5.60;99.90;;;;;;5052830;28;20190;-81
2023/03/04 00:46:12;;;;;;;10.30;4.50;;;5.70;99.90;;;;;;5049008;28;20189;-78
2023/03/04 00:48:39;;;;;;;9.57;4.63;;;5.70;99.90;;;;;;5054975;28;20178;-79
2023/03/04 00:51:05;;;;;;;11.30;5.37;;;5.60;99.90;;;;;;5050014;28;20694;-80
2023/03/04 00:53:31;;;;;;;6.33;4.07;;;5.60;99.90;;;;;;5048109;28;20424;-81
2023/03/04 00:55:56;;;;;;;11.70;5.10;;;5.60;99.90;;;;;;5055251;28;20430;-77
2023/03/04 00:58:22;;;;;;;8.23;4.40;;;5.50;99.90;;;;;;5055797;28;20210;-78
2023/03/04 01:00:48;;;;;;;15.40;4.73;;;5.60;99.90;;;;;;5050432;28;20185;-80
2023/03/04 01:03:13;;;;;;;7.93;4.60;;;5.60;99.90;;;;;;5039834;28;20196;-78
2023/03/04 01:05:39;;;;;;;14.00;5.03;;;5.80;99.90;;;;;;5047117;28;20238;-79
2023/03/04 01:08:05;;;;;;;9.00;4.23;;;5.70;99.90;;;;;;5052056;28;20244;-79
2023/03/04 01:10:31;;;;;;;10.43;4.10;;;6.00;99.90;;;;;;5044674;28;20686;-80
2023/03/04 01:12:57;;;;;;;9.80;4.93;;;5.80;99.90;;;;;;5052153;28;20416;-80
2023/03/04 01:15:23;;;;;;;12.03;4.60;;;5.70;99.90;;;;;;5043641;28;20859;-80
2023/03/04 01:17:49;;;;;;;13.53;4.57;;;5.60;99.90;;;;;;5050405;28;20540;-78
2023/03/04 01:20:15;;;;;;;11.00;4.50;;;5.60;99.90;;;;;;5031262;28;20420;-78
2023/03/04 01:22:41;;;;;;;11.77;6.93;;;5.90;99.90;;;;;;5049117;28;20649;-77
2023/03/04 01:25:07;;;;;;;8.67;4.53;;;5.80;99.90;;;;;;5047240;28;20510;-80
2023/03/04 01:27:33;;;;;;;12.53;4.43;;;5.80;99.90;;;;;;5048648;28;20235;-80
2023/03/04 01:29:59;;;;;;;12.00;4.60;;;5.80;99.90;;;;;;5041648;28;20515;-77
2023/03/04 01:32:25;;;;;;;12.30;4.53;;;5.80;99.90;;;;;;5047087;28;20194;-78
2023/03/04 01:34:50;;;;;;;12.70;4.93;;;5.90;99.90;;;;;;5060962;28;20255;-79
2023/03/04 01:37:16;;;;;;;9.97;4.87;;;5.80;99.90;;;;;;5044911;28;20213;-78
2023/03/04 01:39:42;;;;;;;12.33;4.83;;;5.80;99.90;;;;;;5051457;28;20221;-78
2023/03/04 01:42:18;;;;;;;11.83;4.00;;;5.60;99.90;;;;;;5052594;28;20197;-80
2023/03/04 01:44:44;;;;;;;10.43;3.90;;;5.60;99.90;;;;;;5047304;28;20188;-80
2023/03/04 01:47:10;;;;;;;21.47;4.97;;;5.70;99.90;;;;;;5048636;28;20475;-80
2023/03/04 01:49:36;;;;;;;7.23;3.70;;;5.70;99.90;;;;;;5044040;28;20421;-81
2023/03/04 01:52:02;;;;;;;17.93;4.20;;;5.80;99.90;;;;;;5049333;28;20418;-79
2023/03/04 01:54:28;;;;;;;15.40;4.57;;;5.80;99.90;;;;;;5049827;28;20185;-79
2023/03/04 01:57:00;;;;;;;9.83;4.20;;;5.80;99.90;;;;;;5051093;28;20827;-79
2023/03/04 01:59:29;;;;;;;8.43;3.73;;;5.70;99.90;;;;;;5048717;28;20181;-78
2023/03/04 02:01:57;;;;;;;13.70;4.10;;;5.80;99.90;;;;;;5044648;28;20479;-80
2023/03/04 02:04:26;;;;;;;10.67;3.80;;;5.90;99.90;;;;;;5055515;28;21133;-79
2023/03/04 02:06:54;;;;;;;14.70;5.00;;;5.70;99.90;;;;;;5047044;28;20491;-79
2023/03/04 02:09:20;;;;;;;9.97;5.67;;;5.60;99.90;;;;;;5048385;28;20982;-80
2023/03/04 02:11:47;;;;;;;11.93;4.17;;;5.70;99.90;;;;;;5045412;28;20502;-80
2023/03/04 02:14:14;;;;;;;13.53;4.97;;;5.70;99.90;;;;;;5047225;28;20416;-79
2023/03/04 02:16:40;;;;;;;14.17;4.80;;;5.80;99.90;;;;;;5044096;28;20472;-80
2023/03/04 02:19:26;;;;;;;8.47;4.30;;;5.80;99.90;;;;;;5047657;28;20584;-79
2023/03/04 02:21:51;;;;;;;13.23;4.97;;;5.70;99.90;;;;;;5041508;28;20452;-78
2023/03/04 02:24:34;;;;;;;8.87;3.63;;;5.90;99.90;;;;;;5045462;28;20494;-77
2023/03/04 02:27:00;;;;;;;11.77;4.13;;;5.60;99.90;;;;;;5042067;28;20224;-79
2023/03/04 02:29:27;;;;;;;8.10;4.60;;;5.90;99.90;;;;;;5039982;28;20429;-80
2023/03/04 02:31:53;;;;;;;11.73;3.90;;;5.90;99.90;;;;;;5053085;28;20189;-80
2023/03/04 02:34:31;;;;;;;7.63;3.80;;;5.80;99.90;;;;;;5049663;28;20973;-78
2023/03/04 02:36:58;;;;;;;14.50;4.40;;;5.90;99.90;;;;;;5038294;28;20578;-79
2023/03/04 02:39:42;;;;;;;8.10;5.23;;;5.80;99.90;;;;;;5045503;28;20418;-79
2023/03/04 02:42:08;;;;;;;11.80;4.20;;;5.80;99.90;;;;;;5030509;28;20492;-80
2023/03/04 02:44:40;;;;;;;16.90;5.30;;;5.90;99.90;;;;;;5050453;28;20492;-79
2023/03/04 02:47:08;;;;;;;5.50;3.80;;;5.80;99.90;;;;;;5056261;28;20466;-79
2023/03/04 02:49:37;;;;;;;9.63;4.77;;;5.80;99.90;;;;;;5042429;28;20425;-80
2023/03/04 02:52:08;;;;;;;11.57;6.50;;;5.70;99.90;;;;;;5060742;28;20434;-81
2023/03/04 02:54:34;;;;;;;14.30;5.70;;;5.70;99.90;;;;;;5049355;28;20421;-79
2023/03/04 02:57:02;;;;;;;10.27;4.97;;;5.80;99.90;;;;;;5047856;28;20520;-80
2023/03/04 02:59:28;;;;;;;13.60;6.23;;;5.90;99.90;;;;;;5047561;28;20432;-79
2023/03/04 03:01:54;;;;;;;21.07;5.00;;;5.80;99.90;;;;;;5044775;28;20500;-79
2023/03/04 03:04:21;;;;;;;13.57;4.93;;;5.80;99.90;;;;;;5045593;28;20428;-80
2023/03/04 03:06:47;;;;;;;16.87;5.10;;;5.70;99.90;;;;;;5045846;28;20233;-79
2023/03/04 03:09:13;;;;;;;12.20;4.50;;;6.00;99.90;;;;;;5048354;28;20412;-80
2023/03/04 03:11:39;;;;;;;10.23;5.17;;;5.70;99.90;;;;;;5043781;28;20436;-80
2023/03/04 03:14:04;;;;;;;11.03;4.30;;;5.90;99.90;;;;;;5046593;28;20708;-79
2023/03/04 03:16:30;;;;;;;10.63;4.30;;;5.80;99.90;;;;;;5047116;28;20248;-80
2023/03/04 03:18:56;;;;;;;12.37;4.20;;;5.80;99.90;;;;;;5045250;28;20279;-80
2023/03/04 03:21:22;;;;;;;12.00;3.90;;;5.70;99.90;;;;;;5048454;28;20194;-79
2023/03/04 03:23:48;;;;;;;11.53;5.00;;;5.80;99.90;;;;;;5045224;28;20518;-80
2023/03/04 03:26:13;;;;;;;14.87;4.40;;;5.40;99.90;;;;;;5047905;28;20208;-79
2023/03/04 03:28:39;;;;;;;14.10;4.47;;;5.80;99.90;;;;;;5041459;28;20225;-77
2023/03/04 03:31:05;;;;;;;14.97;4.20;;;5.80;99.90;;;;;;5045212;28;20183;-80
2023/03/04 03:33:31;;;;;;;15.33;4.60;;;5.80;99.90;;;;;;5047646;28;20192;-80
2023/03/04 03:35:57;;;;;;;15.27;4.87;;;5.90;99.90;;;;;;5055584;28;20214;-77
2023/03/04 03:38:23;;;;;;;13.53;4.07;;;5.70;99.90;;;;;;5045093;28;20265;-77
2023/03/04 03:40:48;;;;;;;11.13;4.17;;;5.80;99.90;;;;;;5047153;28;20451;-78
2023/03/04 03:43:14;;;;;;;8.70;3.77;;;5.90;99.90;;;;;;5049660;28;20477;-80
2023/03/04 03:45:39;;;;;;;11.77;4.67;;;5.80;99.90;;;;;;5045820;28;20190;-78
2023/03/04 03:48:05;;;;;;;10.90;4.07;;;5.80;99.90;;;;;;5047548;28;20576;-79
2023/03/04 03:50:32;;;;;;;7.50;3.00;;;5.70;99.90;;;;;;5041302;28;20190;-79
2023/03/04 03:52:58;;;;;;;11.80;3.50;;;5.90;99.90;;;;;;5052445;28;20173;-78
2023/03/04 03:55:23;;;;;;;10.60;3.77;;;5.80;99.90;;;;;;5050217;28;20537;-81
2023/03/04 03:57:49;;;;;;;10.67;4.23;;;5.90;99.90;;;;;;5044239;28;20476;-78
2023/03/04 04:00:15;;;;;;;8.80;4.00;;;5.90;99.90;;;;;;5049164;28;20206;-79
2023/03/04 04:02:41;;;;;;;8.40;3.47;;;5.80;99.90;;;;;;5042640;28;20199;-77
2023/03/04 04:05:08;;;;;;;13.10;3.80;;;5.80;99.90;;;;;;5046979;28;21075;-80
2023/03/04 04:07:35;;;;;;;10.80;3.77;;;6.00;99.90;;;;;;5054034;28;20956;-79
2023/03/04 04:10:00;;;;;;;10.30;3.83;;;5.80;99.90;;;;;;5052386;28;20503;-78
2023/03/04 04:12:26;;;;;;;14.97;4.73;;;5.70;99.90;;;;;;5055227;28;20454;-79
2023/03/04 04:14:52;;;;;;;10.27;3.07;;;5.80;99.90;;;;;;5047195;28;20210;-80
2023/03/04 04:17:17;;;;;;;9.20;2.90;;;5.90;99.90;;;;;;5031013;28;20209;-80
2023/03/04 04:19:43;;;;;;;7.53;3.13;;;5.80;99.90;;;;;;5048734;28;20198;-79
2023/03/04 04:22:17;;;;;;;7.03;3.37;;;5.70;99.90;;;;;;5052605;28;20288;-77
2023/03/04 04:24:43;;;;;;;5.90;3.40;;;5.80;99.90;;;;;;5046416;28;20251;-80
2023/03/04 04:27:10;;;;;;;13.20;3.40;;;5.80;99.90;;;;;;5050771;28;20475;-78
2023/03/04 04:29:35;;;;;;;7.53;2.67;;;5.90;99.90;;;;;;5044122;28;20218;-79
2023/03/04 04:32:01;;;;;;;8.83;3.23;;;6.00;99.90;;;;;;5049398;28;20416;-77
2023/03/04 04:34:27;;;;;;;6.93;3.13;;;5.80;99.90;;;;;;5049677;28;20191;-79
2023/03/04 04:36:52;;;;;;;10.23;3.87;;;5.60;99.90;;;;;;5047144;28;20205;-80
2023/03/04 04:39:18;;;;;;;5.27;2.93;;;5.80;99.90;;;;;;5049563;28;20745;-77
2023/03/04 04:41:44;;;;;;;7.50;3.03;;;5.80;99.90;;;;;;5045178;28;20201;-77
2023/03/04 04:44:11;;;;;;;8.63;3.67;;;5.70;99.90;;;;;;5061198;28;20262;-80
2023/03/04 04:46:37;;;;;;;7.33;2.90;;;5.70;99.90;;;;;;5054247;28;20464;-79
2023/03/04 04:49:04;;;;;;;8.60;2.80;;;5.80;99.90;;;;;;5051227;28;20426;-78
2023/03/04 04:51:30;;;;;;;6.50;2.80;;;5.90;99.90;;;;;;5049832;28;20416;-78
2023/03/04 04:53:58;;;;;;;10.20;2.93;;;5.80;99.90;;;;;;5047818;28;20417;-79
2023/03/04 04:56:25;;;;;;;14.53;2.93;;;5.80;99.90;;;;;;5051798;28;20925;-79
2023/03/04 04:58:53;;;;;;;9.07;3.63;;;5.70;99.90;;;;;;5048483;28;20924;-76
2023/03/04 05:01:19;;;;;;;8.20;2.97;;;6.00;99.90;;;;;;5050374;28;20421;-79
2023/03/04 05:03:45;;;;;;;5.27;2.60;;;5.80;99.90;;;;;;5044018;28;20417;-79
2023/03/04 05:06:12;;;;;;;9.97;2.93;;;5.80;99.90;;;;;;5045302;28;20465;-78
2023/03/04 05:08:38;;;;;;;8.20;2.70;;;5.70;99.90;;;;;;5035273;28;20583;-79
2023/03/04 05:11:05;;;;;;;8.20;2.40;;;5.70;99.90;;;;;;5034040;28;20425;-79
2023/03/04 05:13:31;;;;;;;8.67;2.50;;;5.80;99.90;;;;;;5035292;28;20424;-78
2023/03/04 05:15:57;;;;;;;10.23;3.00;;;5.90;99.90;;;;;;5034706;28;20413;-78
2023/03/04 05:18:25;;;;;;;7.30;2.73;;;5.70;99.90;;;;;;5033300;28;20206;-81
2023/03/04 05:20:56;;;;;;;9.80;2.90;;;5.80;99.90;;;;;;5034878;28;20417;-80
2023/03/04 05:23:22;;;;;;;6.73;2.73;;;5.80;99.90;;;;;;5035381;28;20492;-79
2023/03/04 05:25:48;;;;;;;5.93;2.60;;;6.00;99.90;;;;;;5034617;28;20421;-78
2023/03/04 05:28:15;;;;;;;9.07;2.50;;;5.70;99.90;;;;;;5016729;28;20503;-79
2023/03/04 05:30:43;;;;;;;11.80;4.30;;;5.70;99.90;;;;;;5015169;28;20421;-77
2023/03/04 05:33:10;;;;;;;9.27;2.30;;;5.80;99.90;;;;;;5033628;28;20410;-78
2023/03/04 05:35:37;;;;;;;11.60;3.23;;;5.80;99.90;;;;;;5017290;28;20521;-80
2023/03/04 05:38:05;;;;;;;5.03;2.13;;;5.90;99.90;;;;;;5017284;28;20440;-80
2023/03/04 05:40:31;;;;;;;11.27;2.50;;;5.80;99.90;;;;;;5035070;28;20417;-79
2023/03/04 05:42:56;;;;;;;8.50;3.13;;;5.80;99.90;;;;;;5035394;28;20763;-79
2023/03/04 05:45:22;;;;;;;6.43;3.00;;;5.70;99.90;;;;;;5016927;28;20537;-79
2023/03/04 05:47:49;;;;;;;6.80;2.87;;;6.00;99.90;;;;;;5032451;28;20614;-78
2023/03/04 05:50:14;;;;;;;11.03;2.63;;;5.30;99.90;;;;;;5033050;28;20417;-81
2023/03/04 05:52:40;;;;;;;3.43;2.33;;;5.70;99.90;;;;;;5034006;28;20445;-77
2023/03/04 05:55:07;;;;;;;7.57;2.77;;;5.70;99.90;;;;;;5049432;28;20189;-80
2023/03/04 05:57:32;;;;;;;8.77;2.67;;;5.90;99.90;;;;;;5049677;28;20440;-81
2023/03/04 05:59:58;;;;;;;7.50;2.33;;;5.70;99.90;;;;;;5034310;28;20785;-77
2023/03/04 06:02:23;;;;;;;7.57;2.60;;;6.00;99.90;;;;;;5034566;28;20213;-79
2023/03/04 06:04:49;;;;;;;8.57;3.00;;;5.80;99.90;;;;;;5032881;28;20671;-78
2023/03/04 06:07:15;;;;;;;8.50;3.20;;;5.80;99.90;;;;;;5033224;28;20245;-77
2023/03/04 06:09:43;;;;;;;14.80;2.73;;;5.70;99.90;;;;;;5032970;28;20182;-78
2023/03/04 06:12:10;;;;;;;11.27;3.97;;;5.90;99.90;;;;;;5033094;28;20711;-78
2023/03/04 06:14:35;;;;;;;11.07;3.40;;;5.80;99.90;;;;;;5034293;28;20501;-79
2023/03/04 06:17:01;;;;;;;4.40;2.10;;;6.00;99.90;;;;;;5033112;28;20453;-79
2023/03/04 06:19:27;;;;;;;7.33;2.50;;;5.80;99.90;;;;;;5033877;28;20175;-78
2023/03/04 06:21:52;;;;;;;9.50;2.90;;;6.00;99.90;;;;;;5034125;28;20241;-79
2023/03/04 06:24:18;;;;;;;4.93;2.37;;;5.80;99.90;;;;;;5033808;28;20257;-78
2023/03/04 06:26:44;;;;;;;6.47;2.77;;;5.70;99.90;;;;;;5015671;28;20206;-78
2023/03/04 06:29:10;;;;;;;5.00;2.40;;;5.80;99.90;;;;;;5033381;28;20673;-79
2023/03/04 06:31:35;;;;;;;6.03;2.80;;;5.80;99.90;;;;;;5048602;28;20178;-81
2023/03/04 06:34:01;;;;;;;12.83;2.67;;;6.00;99.90;;;;;;5033447;28;20420;-78
2023/03/04 06:36:27;;;;;;;8.93;3.17;;;5.80;99.90;;;;;;5032745;28;20210;-81
2023/03/04 06:38:53;;;;;;;8.93;2.67;;;5.80;99.90;;;;;;5048968;28;20261;-81
2023/03/04 06:41:18;;;;;;;10.10;2.70;;;5.90;99.90;;;;;;5049005;28;20206;-77
2023/03/04 06:43:44;;;;;;;15.20;2.67;;;6.00;99.90;;;;;;5033347;28;20261;-80
2023/03/04 06:46:10;;;;;;;8.30;2.90;;;5.70;99.90;;;;;;5034211;28;20180;-77
2023/03/04 06:48:35;;;;;;;6.80;2.97;;;5.70;99.90;;;;;;5032773;28;20296;-81
2023/03/04 06:51:09;;;;;;;6.83;2.53;;;5.70;99.90;;;;;;5032423;28;20185;-79
2023/03/04 06:53:35;;;;;;;6.13;2.63;;;5.80;99.90;;;;;;5033220;28;20221;-78
2023/03/04 06:56:01;;;;;;;14.33;3.03;;;5.80;99.90;;;;;;5033955;28;20406;-78
2023/03/04 06:58:27;;;;;;;4.57;2.30;;;6.00;99.90;;;;;;5032801;28;20523;-80
2023/03/04 07:00:52;;;;;;;8.40;2.63;;;5.90;99.90;;;;;;5033505;28;20242;-77
2023/03/04 07:03:18;;;;;;;7.80;2.70;;;5.80;99.90;;;;;;5033374;28;20662;-81
2023/03/04 07:05:44;;;;;;;8.27;2.67;;;5.80;99.90;;;;;;5048572;28;20225;-81
2023/03/04 07:08:10;;;;;;;6.67;2.23;;;5.90;99.90;;;;;;5048323;28;20547;-78
2023/03/04 07:10:35;;;;;;;3.30;2.10;;;5.80;99.90;;;;;;5044278;28;20587;-79
2023/03/04 07:13:01;;;;;;;2.77;2.10;;;5.90;99.90;;;;;;5052908;28;20408;-79
2023/03/04 07:15:27;;;;;;;4.17;2.03;;;5.90;99.90;;;;;;5050454;28;20209;-79
2023/03/04 07:17:53;;;;;;;9.53;2.37;;;5.80;99.90;;;;;;5048023;28;20212;-79
2023/03/04 07:20:19;;;;;;;7.63;2.00;;;5.90;99.90;;;;;;5048765;28;20181;-79
2023/03/04 07:22:44;;;;;;;7.30;2.80;;;5.90;99.90;;;;;;5049367;28;20195;-79
2023/03/04 07:25:10;;;;;;;6.17;1.90;;;6.00;99.90;;;;;;5049468;28;20182;-79
2023/03/04 07:27:37;;;;;;;4.83;2.07;;;6.10;99.90;;;;;;5049065;28;20968;-79
2023/03/04 07:30:04;;;;;;;5.83;1.90;;;6.10;99.90;;;;;;5048636;28;20424;-77
2023/03/04 07:32:33;;;;;;;5.03;1.93;;;5.90;99.90;;;;;;5052871;28;20413;-78
2023/03/04 07:34:58;;;;;;;7.63;2.20;;;5.90;99.90;;;;;;5052745;28;20416;-79
2023/03/04 07:37:24;;;;;;;5.27;2.27;;;6.00;99.90;;;;;;5049957;28;20586;-79
2023/03/04 07:39:50;;;;;;;3.10;1.90;;;6.00;99.90;;;;;;5050800;28;20181;-77
2023/03/04 07:42:16;;;;;;;4.07;1.60;;;6.00;99.90;;;;;;5053994;28;20639;-77
2023/03/04 07:44:41;;;;;;;7.37;2.50;;;5.90;99.90;;;;;;5049594;28;20186;-79
2023/03/04 07:47:07;;;;;;;4.30;1.63;;;6.00;99.90;;;;;;5034035;28;20651;-78
2023/03/04 07:49:33;;;;;;;5.90;1.90;;;6.00;99.90;;;;;;5033878;28;20651;-80
2023/03/04 07:52:03;;;;;;;5.73;2.30;;;6.00;99.90;;;;;;5034310;28;20185;-80
2023/03/04 07:54:28;;;;;;;6.57;1.70;;;5.90;99.90;;;;;;5033441;28;20175;-78
2023/03/04 07:56:54;;;;;;;4.17;1.77;;;6.10;99.90;;;;;;5032827;28;20529;-79
2023/03/04 07:59:19;;;;;;;4.23;1.63;;;6.30;99.90;;;;;;5032404;28;20190;-80
2023/03/04 08:01:45;;;;;;;4.30;2.00;;;6.00;99.90;;;;;;5032764;28;20186;-79
2023/03/04 08:04:11;;;;;;;4.70;2.20;;;6.00;99.90;;;;;;5033984;28;20656;-80
2023/03/04 08:06:38;;;;;;;7.10;2.10;;;5.90;99.90;;;;;;5033908;28;20229;-78
2023/03/04 08:09:06;;;;;;;3.40;2.00;;;6.00;99.90;;;;;;5033405;28;20647;-79
2023/03/04 08:11:32;;;;;;;3.47;2.50;;;6.10;99.90;;;;;;5033798;28;20420;-79
2023/03/04 08:13:58;;;;;;;3.80;1.90;;;6.00;99.90;;;;;;5042180;28;20420;-80
2023/03/04 08:16:25;;;;;;;4.93;2.10;;;6.20;99.90;;;;;;5053234;28;20409;-79
2023/03/04 08:18:56;;;;;;;8.77;2.50;;;6.30;99.90;;;;;;5052433;28;20440;-79
2023/03/04 08:21:24;;;;;;;4.63;2.30;;;6.50;99.90;;;;;;5052750;28;20413;-79
2023/03/04 08:23:51;;;;;;;5.10;3.20;;;6.70;99.90;;;;;;5039632;28;20416;-80
2023/03/04 08:26:26;;;;;;;6.43;2.77;;;6.90;99.90;;;;;;5032874;28;20467;-79
2023/03/04 08:28:52;;;;;;;6.70;2.60;;;7.00;99.90;;;;;;5033828;28;20488;-79
2023/03/04 08:31:18;;;;;;;6.30;2.70;;;7.00;99.90;;;;;;5047717;28;20423;-78
2023/03/04 08:33:45;;;;;;;5.27;2.70;;;7.10;99.90;;;;;;5052197;28;20413;-79
2023/03/04 08:36:10;;;;;;;9.03;2.70;;;7.10;99.90;;;;;;5051755;28;20424;-79
2023/03/04 08:38:36;;;;;;;5.50;3.47;;;7.10;99.90;;;;;;5052011;28;20442;-79
2023/03/04 08:41:03;;;;;;;8.90;3.20;;;7.20;99.90;;;;;;5052403;28;20232;-79
2023/03/04 08:43:29;;;;;;;5.10;3.37;;;7.20;99.90;;;;;;5050650;28;20185;-79
2023/03/04 08:45:55;;;;;;;9.53;3.30;;;7.20;99.90;;;;;;5052426;28;20422;-79
2023/03/04 08:48:21;;;;;;;6.67;2.93;;;7.20;99.90;;;;;;5051842;28;20444;-79
2023/03/04 08:50:48;;;;;;;7.13;3.37;;;7.20;99.90;;;;;;5044545;28;20416;-79
2023/03/04 08:53:15;;;;;;;6.10;3.10;;;7.20;99.90;;;;;;5032204;28;20405;-79
2023/03/04 08:55:42;;;;;;;6.20;2.90;;;7.20;99.90;;;;;;5050690;28;20413;-80
2023/03/04 08:58:08;;;;;;;10.00;3.70;;;7.10;99.90;;;;;;5051831;28;20436;-79
2023/03/04 09:00:36;;;;;;;6.37;3.87;;;7.10;99.90;;;;;;5051727;28;20507;-79
2023/03/04 09:03:02;;;;;;;7.37;3.87;;;7.00;99.90;;;;;;5051889;28;20431;-80
2023/03/04 09:05:29;;;;;;;7.00;4.33;;;7.10;99.90;;;;;;5049737;28;20467;-79
2023/03/04 09:07:55;;;;;;;10.40;5.33;;;7.10;99.90;;;;;;5049470;28;20482;-79
2023/03/04 09:10:21;;;;;;;10.10;7.63;;;7.10;99.90;;;;;;5050161;28;20558;-78
2023/03/04 09:12:46;;;;;;;9.50;5.80;;;7.10;99.90;;;;;;5051170;28;20498;-80
2023/03/04 09:15:12;;;;;;;12.70;6.70;;;7.10;99.90;;;;;;5049480;28;20174;-79
2023/03/04 09:17:40;;;;;;;17.33;7.97;;;7.20;99.90;;;;;;5050074;28;20724;-79
2023/03/04 09:20:09;;;;;;;10.53;7.90;;;7.10;99.90;;;;;;5050434;28;20864;-79
2023/03/04 09:22:36;;;;;;;13.53;8.17;;;7.10;99.90;;;;;;5050655;28;20444;-79
2023/03/04 09:25:01;;;;;;;10.97;7.90;;;7.10;99.90;;;;;;5051624;28;20937;-80
2023/03/04 09:27:27;;;;;;;12.40;7.63;;;7.00;99.90;;;;;;5050080;28;20452;-79
2023/03/04 09:29:53;;;;;;;10.93;6.90;;;7.00;99.90;;;;;;5049476;28;20279;-79
2023/03/04 09:32:18;;;;;;;14.80;8.23;;;7.10;99.90;;;;;;5050406;28;20174;-79
2023/03/04 09:34:44;;;;;;;12.83;8.20;;;7.00;99.90;;;;;;5051178;28;20710;-79
2023/03/04 09:37:10;;;;;;;9.80;7.33;;;7.00;99.90;;;;;;5051255;28;20225;-79
2023/03/04 09:39:35;;;;;;;12.43;7.00;;;7.00;99.90;;;;;;5049826;28;20194;-79
2023/03/04 09:42:03;;;;;;;9.83;6.77;;;7.00;99.90;;;;;;5051600;28;20606;-79
2023/03/04 09:44:45;;;;;;;8.50;5.83;;;7.00;99.90;;;;;;5051201;28;20181;-79
2023/03/04 09:47:16;;;;;;;11.63;6.40;;;7.00;99.90;;;;;;5051131;28;20456;-79
2023/03/04 09:49:55;;;;;;;9.97;6.57;;;7.10;99.90;;;;;;5051762;28;20411;-78
2023/03/04 09:52:28;;;;;;;10.87;5.90;;;7.10;99.90;;;;;;5051106;28;20413;-79
2023/03/04 09:54:59;;;;;;;7.87;6.30;;;7.00;99.90;;;;;;5051524;28;20412;-80
2023/03/04 09:57:53;;;;;;;9.30;6.27;;;7.00;99.90;;;;;;5052039;28;20509;-79
2023/03/04 10:00:37;;;;;;;11.13;5.70;;;6.90;99.90;;;;;;5050984;28;20944;-80
2023/03/04 10:03:26;;;;;;;7.87;5.70;;;6.90;99.90;;;;;;5033129;28;21202;-79
2023/03/04 10:05:58;;;;;;;10.70;5.90;;;6.90;99.90;;;;;;5050061;28;20515;-80
2023/03/04 10:08:29;;;;;;;6.33;5.60;;;6.90;99.90;;;;;;5051580;28;20444;-80
2023/03/04 10:10:58;;;;;;;8.33;5.80;;;6.60;99.90;;;;;;5050583;28;20409;-79
2023/03/04 10:13:39;;;;;;;7.77;5.80;;;6.90;99.90;;;;;;5051492;28;20413;-80
2023/03/04 10:16:08;;;;;;;9.40;6.70;;;6.90;99.90;;;;;;5050111;28;20436;-79
2023/03/04 10:18:40;;;;;;;10.90;7.47;;;6.90;99.90;;;;;;5049490;28;21155;-80
2023/03/04 10:21:25;;;;;;;10.00;6.80;;;7.00;99.90;;;;;;5049428;28;20776;-79
2023/03/04 10:23:53;;;;;;;13.03;7.77;;;6.90;99.90;;;;;;5050694;28;20420;-79
2023/03/04 10:26:21;;;;;;;11.73;6.87;;;6.80;99.90;;;;;;5051114;28;20983;-79
2023/03/04 10:28:48;;;;;;;14.13;8.40;;;6.90;99.90;;;;;;5050482;28;20452;-80
2023/03/04 10:31:16;;;;;;;14.67;9.30;;;7.00;99.90;;;;;;5048379;28;20404;-79
2023/03/04 10:33:42;;;;;;;11.03;8.37;;;6.90;99.90;;;;;;5052213;28;20448;-81
2023/03/04 10:36:28;;;;;;;9.50;7.67;;;7.00;99.90;;;;;;5055272;28;20471;-81
2023/03/04 10:39:11;;;;;;;10.70;8.13;;;6.90;99.90;;;;;;5051705;28;20420;-81
2023/03/04 10:41:42;;;;;;;14.87;9.17;;;7.00;99.90;;;;;;5055115;28;20427;-81
2023/03/04 10:44:08;;;;;;;10.30;8.33;;;6.70;99.90;;;;;;5039179;28;20499;-81
2023/03/04 10:46:38;;;;;;;10.80;7.63;;;7.00;99.90;;;;;;5035317;28;20468;-80
2023/03/04 10:49:04;;;;;;;10.50;8.13;;;6.80;99.90;;;;;;5035586;28;20599;-81
2023/03/04 10:51:30;;;;;;;9.90;7.67;;;6.90;99.90;;;;;;5034805;28;20418;-80
2023/03/04 10:53:59;;;;;;;10.30;7.60;;;6.90;99.90;;;;;;5018345;28;20417;-81
2023/03/04 10:56:38;;;;;;;10.17;7.63;;;6.90;99.90;;;;;;5035718;28;20414;-81
2023/03/04 10:59:30;;;;;;;13.30;8.13;;;7.10;99.90;;;;;;5036162;28;20906;-80
2023/03/04 11:01:56;;;;;;;11.07;6.50;;;7.00;99.90;;;;;;5034851;28;20436;-78
2023/03/04 11:04:31;;;;;;;9.27;7.10;;;7.00;99.90;;;;;;5035681;28;20463;-79
2023/03/04 11:06:56;;;;;;;9.10;6.50;;;7.00;99.90;;;;;;5033622;28;20829;-81
2023/03/04 11:09:30;;;;;;;10.00;5.77;;;7.10;99.90;;;;;;5034908;28;20413;-79
2023/03/04 11:12:00;;;;;;;11.23;5.97;;;7.10;99.90;;;;;;5034379;28;20209;-78
2023/03/04 11:14:44;;;;;;;7.87;6.07;;;7.10;99.90;;;;;;5034832;28;20467;-79
2023/03/04 11:17:24;;;;;;;8.17;6.00;;;7.00;99.90;;;;;;5034619;28;20437;-78
2023/03/04 11:20:08;;;;;;;6.90;5.30;;;6.70;99.90;;;;;;5035095;28;20413;-81
2023/03/04 11:22:34;;;;;;;9.17;5.87;;;7.00;99.90;;;;;;5034075;28;20965;-79
2023/03/04 11:25:07;;;;;;;10.90;6.70;;;7.10;99.90;;;;;;5035355;28;20432;-81
2023/03/04 11:27:46;;;;;;;6.83;5.67;;;7.00;99.90;;;;;;5033611;28;20510;-79
2023/03/04 11:30:33;;;;;;;8.07;4.93;;;7.00;99.90;;;;;;5033847;28;20925;-81
2023/03/04 11:33:19;;;;;;;7.17;6.10;;;7.00;99.90;;;;;;5034611;28;20467;-79
2023/03/04 11:35:57;;;;;;;8.43;5.67;;;7.10;99.90;;;;;;5035128;28;20922;-78
2023/03/04 11:38:38;;;;;;;8.63;4.30;;;7.10;99.90;;;;;;5034364;28;20437;-78
2023/03/04 11:41:15;;;;;;;10.10;5.70;;;7.10;99.90;;;;;;5034376;28;20401;-80
2023/03/04 11:43:45;;;;;;;6.03;5.17;;;7.10;99.90;;;;;;5033606;28;20417;-77
2023/03/04 11:46:37;;;;;;;6.43;5.27;;;7.30;99.90;;;;;;5048519;28;20424;-78
2023/03/04 11:49:21;;;;;;;11.80;5.60;;;7.10;99.90;;;;;;5052677;28;20416;-81
2023/03/04 11:52:03;;;;;;;7.70;5.40;;;7.20;99.90;;;;;;5053609;28;20745;-78
2023/03/04 11:54:45;;;;;;;5.70;4.80;;;7.20;99.90;;;;;;5053230;28;20424;-79
2023/03/04 11:57:26;;;;;;;10.27;5.47;;;7.30;99.90;;;;;;5054324;28;20420;-78
2023/03/04 11:59:55;;;;;;;11.07;6.50;;;7.30;99.90;;;;;;5052299;28;20947;-78
2023/03/04 12:02:30;;;;;;;9.97;5.60;;;7.40;99.90;;;;;;5051670;28;20420;-79
2023/03/04 12:05:12;;;;;;;6.20;5.33;;;7.50;99.90;;;;;;5051838;28;20500;-79
2023/03/04 12:08:19;;;;;;;6.67;5.57;;;7.50;99.90;;;;;;5055875;28;20489;-80
2023/03/04 12:10:47;;;;;;;9.70;6.00;;;7.50;99.90;;;;;;5054791;28;20462;-80
2023/03/04 12:13:24;;;;;;;5.40;4.90;;;7.50;99.90;;;;;;5051807;28;20414;-80
2023/03/04 12:16:20;;;;;;;6.10;5.50;;;7.50;99.90;;;;;;5052219;28;21304;-79
2023/03/04 12:19:05;;;;;;;6.50;5.47;;;7.50;99.90;;;;;;5050513;28;20482;-78
2023/03/04 12:22:14;;;;;;;8.13;5.70;;;7.40;99.90;;;;;;5051573;28;20420;-80
2023/03/04 12:25:07;;;;;;;9.90;5.80;;;7.30;99.90;;;;;;5051592;28;20569;-77
2023/03/04 12:27:51;;;;;;;6.10;4.50;;;7.40;99.90;;;;;;5053211;28;20483;-79
2023/03/04 12:30:48;;;;;;;6.27;4.77;;;7.40;99.90;;;;;;5055368;28;20399;-80
2023/03/04 12:33:22;;;;;;;5.60;4.53;;;7.50;99.90;;;;;;5055306;28;20404;-80
2023/03/04 12:36:21;;;;;;;7.10;4.67;;;7.50;99.90;;;;;;5055966;28;20908;-78
2023/03/04 12:39:20;;;;;;;8.67;4.90;;;7.40;99.90;;;;;;5054768;28;20831;-79
2023/03/04 12:41:58;;;;;;;6.60;5.27;;;7.40;99.90;;;;;;5055509;28;20427;-80
2023/03/04 12:44:23;;;;;;;8.40;5.40;;;7.40;99.90;;;;;;5053644;28;20453;-80
2023/03/04 12:47:19;;;;;;;8.57;6.73;;;7.40;99.90;;;;;;5033846;28;20457;-79
2023/03/04 12:50:15;;;;;;;8.37;6.60;;;7.40;99.90;;;;;;5035301;28;20177;-77
2023/03/04 12:53:10;;;;;;;8.27;5.93;;;7.50;99.90;;;;;;5034909;28;20397;-79
2023/03/04 12:55:38;;;;;;;6.00;5.40;;;7.50;99.90;;;;;;5029873;28;20413;-79
2023/03/04 12:58:10;;;;;;;7.67;6.00;;;7.50;99.90;;;;;;5033234;28;20502;-80
2023/03/04 13:00:54;;;;;;;9.93;5.43;;;7.50;99.90;;;;;;5033906;28;20405;-81
2023/03/04 13:03:37;;;;;;;5.47;4.93;;;7.50;99.90;;;;;;5033599;28;20436;-79
2023/03/04 13:06:15;;;;;;;9.10;5.30;;;7.50;99.90;;;;;;5034616;28;20432;-78